createdAt,value
2022-10-10T00:00:49.706Z,101076.69
2022-10-10T00:03:17.708Z,101084.34
2022-10-10T00:05:47.150Z,101083.38
2022-10-10T00:08:15.390Z,101078.69
2022-10-10T00:10:43.331Z,101082.78
2022-10-10T00:13:11.322Z,101086.06
2022-10-10T00:15:39.363Z,101086.75
2022-10-10T00:18:07.550Z,101083.22
2022-10-10T00:20:35.474Z,101082.88
2022-10-10T00:23:05.289Z,101086.56
2022-10-10T00:25:35.786Z,101083.72
2022-10-10T00:28:06.303Z,101079.19
2022-10-10T00:30:34.323Z,101093.75
2022-10-10T00:33:02.305Z,101089.41
2022-10-10T00:35:30.524Z,101094.09
2022-10-10T00:37:58.483Z,101087.41
2022-10-10T00:40:27.864Z,101096.78
2022-10-10T00:42:55.827Z,101101.16
2022-10-10T00:45:28.644Z,101093.09
2022-10-10T00:47:59.649Z,101095.63
2022-10-10T00:50:27.609Z,101099.78
2022-10-10T00:52:55.559Z,101097.75
2022-10-10T00:55:23.596Z,101099.44
2022-10-10T00:57:52.926Z,101101.28
2022-10-10T01:00:21.079Z,101103.97
2022-10-10T01:02:49.356Z,101108.84
2022-10-10T01:05:17.621Z,101107.19
2022-10-10T01:07:45.513Z,101107.00
2022-10-10T01:10:14.799Z,101093.50
2022-10-10T01:12:50.762Z,101098.19
2022-10-10T01:15:25.502Z,101102.88
2022-10-10T01:17:58.000Z,101101.56
2022-10-10T01:21:09.255Z,101101.91
2022-10-10T01:24:12.020Z,101098.28
2022-10-10T01:27:04.772Z,101106.69
2022-10-10T01:29:34.634Z,101121.09
2022-10-10T01:32:05.937Z,101120.25
2022-10-10T01:34:37.760Z,101122.97
2022-10-10T01:37:07.001Z,101122.34
2022-10-10T01:39:38.799Z,101130.59
2022-10-10T01:42:11.087Z,101127.94
2022-10-10T01:44:44.460Z,101124.06
2022-10-10T01:47:12.509Z,101132.47
2022-10-10T01:49:41.707Z,101129.81
2022-10-10T01:52:15.552Z,101143.03
2022-10-10T01:54:48.992Z,101148.72
2022-10-10T01:57:22.911Z,101152.44
2022-10-10T02:00:01.670Z,101154.19
2022-10-10T02:02:38.169Z,101176.28
2022-10-10T02:07:55.243Z,101192.66
2022-10-10T02:10:24.780Z,101177.41
2022-10-10T02:12:53.284Z,101153.75
2022-10-10T02:15:27.286Z,101191.91
2022-10-10T02:17:55.274Z,101198.47
2022-10-10T02:20:25.313Z,101194.91
2022-10-10T02:22:53.806Z,101202.72
2022-10-10T02:25:27.103Z,101200.50
2022-10-10T02:28:00.601Z,101175.97
2022-10-10T02:30:30.021Z,101186.78
2022-10-10T02:33:02.102Z,101214.44
2022-10-10T02:35:32.117Z,101217.41
2022-10-10T02:38:01.617Z,101229.25
2022-10-10T02:40:30.542Z,101225.53
2022-10-10T02:42:59.784Z,101236.28
2022-10-10T02:45:29.128Z,101243.34
2022-10-10T02:47:57.119Z,101246.16
2022-10-10T02:50:25.074Z,101248.16
2022-10-10T02:52:53.294Z,101249.31
2022-10-10T02:55:21.688Z,101245.50
2022-10-10T02:57:49.614Z,101250.53
2022-10-10T03:00:17.622Z,101246.16
2022-10-10T03:02:47.228Z,101262.56
2022-10-10T03:05:15.243Z,101268.88
2022-10-10T03:07:43.157Z,101275.19
2022-10-10T03:10:11.085Z,101271.78
2022-10-10T03:12:39.379Z,101283.78
2022-10-10T03:15:11.656Z,101304.00
2022-10-10T03:17:40.143Z,101288.25
2022-10-10T03:20:10.340Z,101299.28
2022-10-10T03:22:38.344Z,101307.97
2022-10-10T03:25:07.131Z,101327.69
2022-10-10T03:27:35.402Z,101335.28
2022-10-10T03:30:03.456Z,101339.56
2022-10-10T03:32:31.433Z,101340.63
2022-10-10T03:34:59.319Z,101343.78
2022-10-10T03:37:29.235Z,101350.09
2022-10-10T03:39:59.438Z,101358.38
2022-10-10T03:42:27.457Z,101361.91
2022-10-10T03:44:55.373Z,101363.56
2022-10-10T03:47:23.347Z,101351.06
2022-10-10T03:49:51.283Z,101379.09
2022-10-10T03:52:19.308Z,101385.84
2022-10-10T03:54:48.766Z,101388.78
2022-10-10T03:57:16.782Z,101396.78
2022-10-10T03:59:47.121Z,101394.56
2022-10-10T04:02:15.089Z,101397.34
2022-10-10T04:04:43.082Z,101403.75
2022-10-10T04:07:11.235Z,101402.22
2022-10-10T04:09:39.221Z,101410.91
2022-10-10T04:12:08.535Z,101421.03
2022-10-10T04:14:36.414Z,101432.59
2022-10-10T04:17:04.404Z,101432.59
2022-10-10T04:19:33.601Z,101451.38
2022-10-10T04:22:01.594Z,101447.97
2022-10-10T04:24:29.502Z,101456.19
2022-10-10T04:26:58.042Z,101462.41
2022-10-10T04:29:28.361Z,101458.31
2022-10-10T04:31:56.914Z,101475.00
2022-10-10T04:34:24.968Z,101459.84
2022-10-10T04:36:52.897Z,101470.69
2022-10-10T04:39:20.823Z,101488.47
2022-10-10T04:41:49.953Z,101474.16
2022-10-10T04:44:34.678Z,101493.69
2022-10-10T04:47:02.886Z,101485.59
2022-10-10T04:50:01.802Z,101498.06
2022-10-10T04:52:30.006Z,101498.91
2022-10-10T04:54:57.941Z,101499.16
2022-10-10T04:57:26.049Z,101514.31
2022-10-10T04:59:55.627Z,101524.00
2022-10-10T05:02:26.294Z,101540.97
2022-10-10T05:04:54.315Z,101538.06
2022-10-10T05:07:22.378Z,101532.06
2022-10-10T05:09:50.351Z,101540.97
2022-10-10T05:12:18.315Z,101544.66
2022-10-10T05:14:48.520Z,101545.50
2022-10-10T05:17:19.171Z,101548.06
2022-10-10T05:19:47.353Z,101555.72
2022-10-10T05:22:15.846Z,101552.56
2022-10-10T05:24:43.850Z,101565.59
2022-10-10T05:27:11.786Z,101574.72
2022-10-10T05:29:39.945Z,101586.47
2022-10-10T05:32:10.350Z,101574.13
2022-10-10T05:34:42.850Z,101577.91
2022-10-10T05:37:13.946Z,101587.06
2022-10-10T05:39:41.929Z,101595.63
2022-10-10T05:42:10.648Z,101595.06
2022-10-10T05:44:38.631Z,101600.25
2022-10-10T05:47:06.797Z,101607.66
2022-10-10T05:49:34.691Z,101608.38
2022-10-10T05:52:04.096Z,101608.66
2022-10-10T05:54:32.073Z,101615.97
2022-10-10T05:56:59.968Z,101618.06
2022-10-10T05:59:29.645Z,101629.41
2022-10-10T06:01:57.699Z,101634.88
2022-10-10T06:04:25.734Z,101640.34
2022-10-10T06:06:53.719Z,101651.00
2022-10-10T06:09:23.054Z,101647.38
2022-10-10T06:11:51.051Z,101661.38
2022-10-10T06:14:19.361Z,101640.91
2022-10-10T06:16:48.305Z,101665.03
2022-10-10T06:19:17.149Z,101673.31
2022-10-10T06:21:45.158Z,101670.66
2022-10-10T06:24:13.107Z,101681.31
2022-10-10T06:26:42.470Z,101684.94
2022-10-10T06:29:10.612Z,101689.44
2022-10-10T06:31:43.616Z,101699.25
2022-10-10T06:34:11.589Z,101700.94
2022-10-10T06:36:39.660Z,101701.25
2022-10-10T06:39:07.779Z,101718.88
2022-10-10T06:41:35.777Z,101710.47
2022-10-10T06:44:12.454Z,101724.50
2022-10-10T06:46:40.482Z,101727.88
2022-10-10T06:49:08.394Z,101738.25
2022-10-10T06:51:36.630Z,101741.88
2022-10-10T06:54:04.920Z,101747.94
2022-10-10T06:56:32.870Z,101747.06
2022-10-10T06:59:01.119Z,101762.66
2022-10-10T07:01:30.622Z,101777.50
2022-10-10T07:03:58.669Z,101777.25
2022-10-10T07:06:26.616Z,101782.44
2022-10-10T07:08:54.800Z,101794.38
2022-10-10T07:11:22.790Z,101799.44
2022-10-10T07:13:53.945Z,101809.78
2022-10-10T07:16:21.974Z,101804.06
2022-10-10T07:18:51.688Z,101819.63
2022-10-10T07:21:19.651Z,101813.44
2022-10-10T07:23:47.593Z,101823.28
2022-10-10T07:26:18.205Z,101837.88
2022-10-10T07:28:47.201Z,101833.25
2022-10-10T07:31:15.871Z,101844.06
2022-10-10T07:33:49.904Z,101839.00
2022-10-10T07:36:19.920Z,101857.53
2022-10-10T07:38:51.870Z,101862.59
2022-10-10T07:41:21.380Z,101864.69
2022-10-10T07:43:50.538Z,101871.00
2022-10-10T07:46:20.519Z,101870.44
2022-10-10T07:48:49.238Z,101864.25
2022-10-10T07:51:17.302Z,101865.13
2022-10-10T07:53:46.717Z,101882.53
2022-10-10T07:56:17.109Z,101880.25
2022-10-10T07:58:45.319Z,101885.91
2022-10-10T08:01:14.293Z,101888.97
2022-10-10T08:03:43.839Z,101890.41
2022-10-10T08:06:12.725Z,101900.75
2022-10-10T08:08:50.036Z,101903.69
2022-10-10T08:11:20.872Z,101904.09
2022-10-10T08:13:51.966Z,101912.94
2022-10-10T08:16:21.605Z,101913.34
2022-10-10T08:18:52.221Z,101919.50
2022-10-10T08:21:22.479Z,101920.88
2022-10-10T08:23:52.797Z,101914.09
2022-10-10T08:26:22.122Z,101929.00
2022-10-10T08:28:50.460Z,101931.66
2022-10-10T08:31:22.647Z,101933.78
2022-10-10T08:33:51.191Z,101942.50
2022-10-10T08:36:19.863Z,101915.50
2022-10-10T08:38:47.870Z,101946.91
2022-10-10T08:41:21.717Z,101965.41
2022-10-10T08:43:52.641Z,101979.56
2022-10-10T08:46:35.960Z,101960.97
2022-10-10T08:49:14.163Z,101960.91
2022-10-10T08:51:45.786Z,101992.84
2022-10-10T08:54:14.135Z,101990.88
2022-10-10T08:56:42.209Z,101989.97
2022-10-10T08:59:15.340Z,101999.84
2022-10-10T09:02:18.800Z,101994.31
2022-10-10T09:04:34.064Z,102008.53
2022-10-10T09:07:12.206Z,101987.97
2022-10-10T09:09:44.007Z,101998.75
2022-10-10T09:12:17.839Z,102010.19
2022-10-10T09:14:53.297Z,102007.63
2022-10-10T09:17:27.222Z,102015.44
2022-10-10T09:20:01.143Z,102018.72
2022-10-10T09:22:33.848Z,102030.91
2022-10-10T09:25:06.002Z,102038.38
2022-10-10T09:27:36.578Z,102033.47
2022-10-10T09:30:08.063Z,102043.56
2022-10-10T09:32:39.034Z,102040.16
2022-10-10T09:35:19.332Z,102032.13
2022-10-10T09:37:48.190Z,102053.97
2022-10-10T09:40:21.422Z,102039.91
2022-10-10T09:42:55.428Z,102064.81
2022-10-10T09:45:34.149Z,102055.88
2022-10-10T09:48:02.279Z,102030.22
2022-10-10T09:50:30.445Z,102067.94
2022-10-10T09:52:59.619Z,102063.84
2022-10-10T09:55:29.095Z,102065.69
2022-10-10T09:57:59.142Z,102073.69
2022-10-10T10:00:36.554Z,102081.78
2022-10-10T10:03:07.242Z,102073.09
2022-10-10T10:05:35.521Z,102088.56
2022-10-10T10:08:03.759Z,102074.47
2022-10-10T10:10:31.775Z,102087.88
2022-10-10T10:12:59.726Z,102105.78
2022-10-10T10:15:30.019Z,102073.91
2022-10-10T10:18:19.484Z,102092.78
2022-10-10T10:23:34.108Z,102098.44
2022-10-10T10:26:03.150Z,102114.53
2022-10-10T10:28:31.501Z,102109.84
2022-10-10T10:30:59.901Z,102129.28
2022-10-10T10:33:42.317Z,102120.19
2022-10-10T10:36:18.015Z,102115.16
2022-10-10T10:38:49.730Z,102126.41
2022-10-10T10:41:23.899Z,102129.91
2022-10-10T10:44:09.870Z,102137.31
2022-10-10T10:46:45.866Z,102143.72
2022-10-10T10:49:19.700Z,102131.00
2022-10-10T10:52:04.599Z,102151.56
2022-10-10T10:54:45.396Z,102160.28
2022-10-10T10:57:40.568Z,102167.19
2022-10-10T11:00:26.214Z,102165.31
2022-10-10T11:03:35.022Z,102177.75
2022-10-10T11:06:06.728Z,102182.81
2022-10-10T11:08:41.277Z,102183.16
2022-10-10T11:11:21.167Z,102188.88
2022-10-10T11:13:58.142Z,102188.38
2022-10-10T11:16:47.531Z,102169.00
2022-10-10T11:19:23.978Z,102191.91
2022-10-10T11:25:46.681Z,102189.28
2022-10-10T11:32:10.706Z,102212.84
2022-10-10T11:34:49.209Z,102203.97
2022-10-10T11:37:27.549Z,102188.53
2022-10-10T11:39:56.846Z,102208.91
2022-10-10T11:42:27.849Z,102219.66
2022-10-10T11:44:58.733Z,102221.16
2022-10-10T11:47:29.670Z,102210.78
2022-10-10T11:49:59.407Z,102199.00
2022-10-10T11:52:34.978Z,102222.63
2022-10-10T11:55:06.928Z,102216.63
2022-10-10T11:57:39.083Z,102231.72
2022-10-10T12:00:12.134Z,102215.25
2022-10-10T12:02:41.523Z,102242.41
2022-10-10T12:05:20.749Z,102231.75
2022-10-10T12:08:00.821Z,102234.69
2022-10-10T12:10:31.776Z,102221.66
2022-10-10T12:15:52.066Z,102224.19
2022-10-10T12:18:42.009Z,102243.00
2022-10-10T12:21:17.852Z,102228.31
2022-10-10T12:23:48.377Z,102235.84
2022-10-10T12:26:17.729Z,102238.81
2022-10-10T12:29:05.705Z,102254.09
2022-10-10T12:31:37.817Z,102253.63
2022-10-10T12:34:36.346Z,102249.44
2022-10-10T12:37:18.703Z,102244.28
2022-10-10T12:40:03.962Z,102256.63
2022-10-10T12:42:33.354Z,102263.25
2022-10-10T12:45:04.327Z,102251.72
2022-10-10T12:48:03.830Z,102269.50
2022-10-10T12:50:35.545Z,102272.66
2022-10-10T12:53:04.244Z,102264.81
2022-10-10T12:55:33.805Z,102271.44
2022-10-10T12:58:03.098Z,102283.25
2022-10-10T13:00:50.049Z,102276.56
2022-10-10T13:03:20.049Z,102293.09
2022-10-10T13:05:48.578Z,102285.34
2022-10-10T13:08:42.100Z,102294.78
2022-10-10T13:11:18.482Z,102296.06
2022-10-10T13:13:50.814Z,102297.19
2022-10-10T13:16:21.178Z,102292.53
2022-10-10T13:18:50.954Z,102295.91
2022-10-10T13:21:23.064Z,102289.81
2022-10-10T13:26:48.174Z,102305.75
2022-10-10T13:29:23.722Z,102302.06
2022-10-10T13:31:54.263Z,102311.41
2022-10-10T13:34:27.133Z,102309.50
2022-10-10T13:37:00.884Z,102312.25
2022-10-10T13:39:29.019Z,102317.66
2022-10-10T13:41:57.314Z,102320.31
2022-10-10T13:44:26.127Z,102287.66
2022-10-10T13:46:58.447Z,102315.56
2022-10-10T13:49:31.244Z,102317.75
2022-10-10T13:54:57.119Z,102314.06
2022-10-10T13:57:26.426Z,102332.56
2022-10-10T14:00:00.894Z,102319.06
2022-10-10T14:02:33.648Z,102324.41
2022-10-10T14:05:05.051Z,102322.38
2022-10-10T14:07:34.343Z,102328.94
2022-10-10T14:10:05.632Z,102339.53
2022-10-10T14:12:35.764Z,102335.16
2022-10-10T14:15:06.062Z,102317.63
2022-10-10T14:17:37.112Z,102341.63
2022-10-10T14:20:08.105Z,102325.41
2022-10-10T14:22:36.471Z,102335.69
2022-10-10T14:25:04.820Z,102347.63
2022-10-10T14:27:37.199Z,102315.69
2022-10-10T14:30:06.831Z,102341.44
2022-10-10T14:32:36.509Z,102342.22
2022-10-10T14:35:11.924Z,102329.38
2022-10-10T14:37:40.216Z,102342.91
2022-10-10T14:40:14.135Z,102323.38
2022-10-10T14:42:42.418Z,102337.00
2022-10-10T14:45:14.334Z,102357.69
2022-10-10T14:47:51.989Z,102353.63
2022-10-10T14:50:21.579Z,102359.34
2022-10-10T14:52:52.924Z,102362.31
2022-10-10T14:55:21.811Z,102351.09
2022-10-10T14:57:56.194Z,102358.53
2022-10-10T15:00:29.426Z,102367.72
2022-10-10T15:02:59.019Z,102362.13
2022-10-10T15:05:27.328Z,102369.91
2022-10-10T15:07:55.483Z,102391.09
2022-10-10T15:10:34.757Z,102376.59
2022-10-10T15:13:04.040Z,102387.28
2022-10-10T15:15:32.514Z,102385.94
2022-10-10T15:18:03.228Z,102378.16
2022-10-10T15:20:34.129Z,102364.94
2022-10-10T15:23:03.672Z,102379.66
2022-10-10T15:25:34.470Z,102383.06
2022-10-10T15:28:03.032Z,102377.34
2022-10-10T15:30:31.422Z,102371.06
2022-10-10T15:32:59.712Z,102380.88
2022-10-10T15:35:56.646Z,102400.44
2022-10-10T15:38:31.373Z,102388.00
2022-10-10T15:41:01.011Z,102382.81
2022-10-10T15:43:52.188Z,102382.06
2022-10-10T15:46:20.196Z,102394.41
2022-10-10T15:48:52.097Z,102373.31
2022-10-10T15:51:21.695Z,102404.03
2022-10-10T15:53:52.694Z,102410.75
2022-10-10T15:56:27.504Z,102409.31
2022-10-10T15:59:00.282Z,102419.59
2022-10-10T16:01:34.032Z,102421.38
2022-10-10T16:04:03.271Z,102415.66
2022-10-10T16:06:39.174Z,102420.78
2022-10-10T16:11:50.876Z,102444.59
2022-10-10T16:14:25.346Z,102406.81
2022-10-10T16:16:53.828Z,102450.41
2022-10-10T16:19:24.098Z,102453.03
2022-10-10T16:24:38.415Z,102454.44
2022-10-10T16:27:15.887Z,102456.56
2022-10-10T16:29:48.111Z,102462.16
2022-10-10T16:32:35.769Z,102464.72
2022-10-10T16:35:10.976Z,102471.41
2022-10-10T16:37:43.733Z,102460.38
2022-10-10T16:40:14.888Z,102457.84
2022-10-10T16:42:42.969Z,102462.13
2022-10-10T16:45:19.213Z,102467.13
2022-10-10T16:48:00.429Z,102459.41
2022-10-10T16:50:28.946Z,102484.56
2022-10-10T16:53:09.548Z,102487.00
2022-10-10T16:55:41.964Z,102482.38
2022-10-10T16:58:13.363Z,102475.81
2022-10-10T17:00:45.596Z,102461.81
2022-10-10T17:03:14.504Z,102494.09
2022-10-10T17:05:43.479Z,102490.53
2022-10-10T17:08:21.557Z,102494.94
2022-10-10T17:10:49.676Z,102498.91
2022-10-10T17:13:21.256Z,102479.03
2022-10-10T17:15:49.802Z,102494.16
2022-10-10T17:18:18.848Z,102498.97
2022-10-10T17:20:47.239Z,102500.56
2022-10-10T17:23:15.408Z,102521.19
2022-10-10T17:25:49.146Z,102523.88
2022-10-10T17:28:19.168Z,102515.28
2022-10-10T17:30:48.588Z,102515.13
2022-10-10T17:33:17.428Z,102523.00
2022-10-10T17:36:28.951Z,102537.31
2022-10-10T17:38:57.275Z,102545.03
2022-10-10T17:41:33.310Z,102543.75
2022-10-10T17:44:02.582Z,102544.72
2022-10-10T17:46:35.287Z,102536.63
2022-10-10T17:49:14.165Z,102546.78
2022-10-10T17:51:43.547Z,102555.31
2022-10-10T17:57:23.952Z,102570.59
2022-10-10T17:59:52.283Z,102568.59
2022-10-10T18:02:25.535Z,102570.84
2022-10-10T18:05:10.366Z,102573.19
2022-10-10T18:07:38.589Z,102585.25
2022-10-10T18:10:07.202Z,102557.22
2022-10-10T18:16:08.607Z,102595.72
2022-10-10T18:18:50.383Z,102591.88
2022-10-10T18:21:22.212Z,102589.84
2022-10-10T18:23:50.784Z,102599.69
2022-10-10T18:26:22.986Z,102593.69
2022-10-10T18:29:07.600Z,102607.75
2022-10-10T18:31:39.470Z,102613.84
2022-10-10T18:34:09.118Z,102623.84
2022-10-10T18:36:48.044Z,102616.56
2022-10-10T18:39:18.972Z,102614.53
2022-10-10T18:41:54.230Z,102618.75
2022-10-10T18:44:24.903Z,102623.50
2022-10-10T18:46:59.959Z,102630.03
2022-10-10T18:49:28.077Z,102594.31
2022-10-10T18:51:59.363Z,102601.69
2022-10-10T18:54:35.540Z,102625.09
2022-10-10T18:57:03.763Z,102627.88
2022-10-10T18:59:34.389Z,102594.66
2022-10-10T19:02:22.731Z,102645.69
2022-10-10T19:04:50.972Z,102650.88
2022-10-10T19:07:20.972Z,102652.22
2022-10-10T19:10:06.210Z,102625.41
2022-10-10T19:12:34.373Z,102643.47
2022-10-10T19:15:05.053Z,102658.50
2022-10-10T19:17:36.406Z,102664.06
2022-10-10T19:20:06.906Z,102660.41
2022-10-10T19:22:41.134Z,102641.81
2022-10-10T19:25:10.466Z,102641.41
2022-10-10T19:27:38.498Z,102656.44
2022-10-10T19:30:50.326Z,102660.75
2022-10-10T19:37:37.665Z,102679.41
2022-10-10T19:40:06.570Z,102640.97
2022-10-10T19:42:34.928Z,102665.09
2022-10-10T19:48:28.374Z,102667.25
2022-10-10T19:50:56.430Z,102674.69
2022-10-10T19:54:10.841Z,102680.88
2022-10-10T19:56:51.002Z,102687.72
2022-10-10T19:59:20.000Z,102707.09
2022-10-10T20:06:21.675Z,102680.63
2022-10-10T20:08:49.963Z,102701.66
2022-10-10T20:16:07.169Z,102713.50
2022-10-10T20:18:51.286Z,102680.84
2022-10-10T20:21:24.156Z,102721.78
2022-10-10T20:24:08.346Z,102726.41
2022-10-10T20:26:36.801Z,102723.75
2022-10-10T20:29:05.081Z,102704.38
2022-10-10T20:31:36.157Z,102724.38
2022-10-10T20:34:19.489Z,102725.00
2022-10-10T20:36:57.099Z,102742.03
2022-10-10T20:39:26.777Z,102740.66
2022-10-10T20:41:55.303Z,102717.91
2022-10-10T20:44:32.593Z,102715.88
2022-10-10T20:47:04.392Z,102722.28
2022-10-10T20:49:34.010Z,102753.94
2022-10-10T20:52:06.608Z,102744.38
2022-10-10T20:54:36.581Z,102745.00
2022-10-10T20:57:34.434Z,102743.31
2022-10-10T21:00:02.478Z,102749.06
2022-10-10T21:02:32.433Z,102746.53
2022-10-10T21:05:06.197Z,102746.41
2022-10-10T21:07:39.850Z,102752.81
2022-10-10T21:10:08.999Z,102754.81
2022-10-10T21:12:37.074Z,102759.28
2022-10-10T21:15:27.470Z,102754.34
2022-10-10T21:18:03.784Z,102765.44
2022-10-10T21:23:16.539Z,102758.38
2022-10-10T21:25:45.403Z,102757.22
2022-10-10T21:28:17.407Z,102762.44
2022-10-10T21:30:48.843Z,102766.03
2022-10-10T21:36:04.275Z,102757.31
2022-10-10T21:38:49.278Z,102761.91
2022-10-10T21:41:20.121Z,102759.00
2022-10-10T21:46:43.092Z,102788.81
2022-10-10T21:49:12.584Z,102776.66
2022-10-10T21:51:42.894Z,102771.25
2022-10-10T21:54:12.434Z,102738.16
2022-10-10T21:56:42.342Z,102776.25
2022-10-10T21:59:11.254Z,102778.50
2022-10-10T22:01:39.332Z,102779.47
2022-10-10T22:04:07.741Z,102769.78
2022-10-10T22:06:42.727Z,102791.81
2022-10-10T22:09:12.110Z,102799.56
2022-10-10T22:11:40.147Z,102802.06
2022-10-10T22:14:18.181Z,102786.59
2022-10-10T22:16:47.289Z,102775.91
2022-10-10T22:19:19.166Z,102796.47
2022-10-10T22:21:48.285Z,102781.56
2022-10-10T22:24:18.110Z,102784.97
2022-10-10T22:26:46.660Z,102786.16
2022-10-10T22:29:16.513Z,102793.28
2022-10-10T22:31:46.211Z,102801.69
2022-10-10T22:34:16.592Z,102807.50
2022-10-10T22:36:46.179Z,102788.56
2022-10-10T22:39:15.000Z,102798.44
2022-10-10T22:41:44.515Z,102796.09
2022-10-10T22:44:21.777Z,102789.34
2022-10-10T22:46:49.901Z,102779.91
2022-10-10T22:49:18.082Z,102807.59
2022-10-10T22:51:51.864Z,102818.41
2022-10-10T22:54:23.999Z,102822.88
2022-10-10T22:56:57.800Z,102817.44
2022-10-10T22:59:27.214Z,102819.88
2022-10-10T23:01:55.482Z,102795.44
2022-10-10T23:04:30.745Z,102814.19
2022-10-10T23:06:58.897Z,102828.63
2022-10-10T23:09:28.093Z,102817.22
2022-10-10T23:11:57.708Z,102810.97
2022-10-10T23:14:25.728Z,102823.72
2022-10-10T23:16:53.741Z,102815.06
2022-10-10T23:19:21.832Z,102799.09
2022-10-10T23:21:49.923Z,102820.25
2022-10-10T23:24:20.652Z,102842.09
2022-10-10T23:26:48.789Z,102837.00
2022-10-10T23:29:21.021Z,102837.09
2022-10-10T23:31:49.278Z,102816.53
2022-10-10T23:34:17.317Z,102837.50
2022-10-10T23:36:45.365Z,102827.06
2022-10-10T23:39:13.465Z,102824.22
2022-10-10T23:41:42.192Z,102834.41
2022-10-10T23:44:12.814Z,102823.13
2022-10-10T23:46:42.199Z,102821.88
2022-10-10T23:49:11.519Z,102815.66
2022-10-10T23:51:41.080Z,102829.22
2022-10-10T23:54:10.167Z,102812.34
2022-10-10T23:56:40.379Z,102825.16
2022-10-10T23:59:09.196Z,102828.94
